sensor_id;sensor_type;location;lat;lon;timestamp;P1;durP1;ratioP1;P2;durP2;ratioP2
75104;SDS011;64778;47.314;8.466;2023-01-15T11:31:21;0.00;;;0.00;;
75104;SDS011;64778;47.314;8.466;2023-01-15T11:36:24;0.20;;;0.10;;
75104;SDS011;64778;47.314;8.466;2023-01-15T11:38:53;1.88;;;1.15;;
75104;SDS011;64778;47.314;8.466;2023-01-15T11:44:08;0.08;;;0.03;;
75104;SDS011;64778;47.314;8.466;2023-01-15T11:46:53;0.10;;;0.10;;
75104;SDS011;64778;47.314;8.466;2023-01-15T11:49:38;0.20;;;0.10;;
75104;SDS011;64778;47.314;8.466;2023-01-15T11:52:24;0.35;;;0.10;;
75104;SDS011;64778;47.314;8.466;2023-01-15T11:54:51;3.83;;;0.40;;
75104;SDS011;64778;47.314;8.466;2023-01-15T11:57:25;0.50;;;0.20;;
75104;SDS011;64778;47.314;8.466;2023-01-15T11:59:56;0.35;;;0.10;;
75104;SDS011;64778;47.314;8.466;2023-01-15T12:02:41;0.17;;;0.03;;
75104;SDS011;64778;47.314;8.466;2023-01-15T12:07:42;0.40;;;0.20;;
75104;SDS011;64778;47.314;8.466;2023-01-15T12:12:42;0.70;;;0.00;;
75104;SDS011;64778;47.314;8.466;2023-01-15T12:30:35;0.10;;;0.10;;
75104;SDS011;64778;47.314;8.466;2023-01-15T12:32:42;0.10;;;0.10;;
75104;SDS011;64778;47.314;8.466;2023-01-15T12:35:16;0.63;;;0.30;;
75104;SDS011;64778;47.314;8.466;2023-01-15T12:37:51;0.55;;;0.10;;
75104;SDS011;64778;47.314;8.466;2023-01-15T12:40:36;0.03;;;0.03;;
75104;SDS011;64778;47.314;8.466;2023-01-15T12:43:12;0.30;;;0.10;;
75104;SDS011;64778;47.314;8.466;2023-01-15T12:46:01;0.47;;;0.10;;
75104;SDS011;64778;47.314;8.466;2023-01-15T12:48:34;0.22;;;0.10;;
75104;SDS011;64778;47.314;8.466;2023-01-15T12:51:04;0.52;;;0.10;;
75104;SDS011;64778;47.314;8.466;2023-01-15T12:53:54;0.38;;;0.10;;
75104;SDS011;64778;47.314;8.466;2023-01-15T12:59:21;0.30;;;0.20;;
75104;SDS011;64778;47.314;8.466;2023-01-15T13:07:35;0.13;;;0.10;;
75104;SDS011;64778;47.314;8.466;2023-01-15T13:12:50;0.40;;;0.15;;
75104;SDS011;64778;47.314;8.466;2023-01-15T13:15:24;0.22;;;0.10;;
75104;SDS011;64778;47.314;8.466;2023-01-15T13:18:05;0.20;;;0.10;;
75104;SDS011;64778;47.314;8.466;2023-01-15T13:20:46;0.40;;;0.20;;
75104;SDS011;64778;47.314;8.466;2023-01-15T13:37:35;0.10;;;0.10;;
75104;SDS011;64778;47.314;8.466;2023-01-15T13:42:36;7.22;;;2.95;;
75104;SDS011;64778;47.314;8.466;2023-01-15T13:48:01;0.75;;;0.20;;
75104;SDS011;64778;47.314;8.466;2023-01-15T13:50:42;0.35;;;0.20;;
75104;SDS011;64778;47.314;8.466;2023-01-15T13:55:59;0.32;;;0.00;;
75104;SDS011;64778;47.314;8.466;2023-01-15T13:58:31;0.30;;;0.10;;
75104;SDS011;64778;47.314;8.466;2023-01-15T14:01:06;0.10;;;0.10;;
75104;SDS011;64778;47.314;8.466;2023-01-15T14:03:52;0.60;;;0.10;;
75104;SDS011;64778;47.314;8.466;2023-01-15T14:14:43;0.22;;;0.10;;
75104;SDS011;64778;47.314;8.466;2023-01-15T14:25:39;0.55;;;0.20;;
75104;SDS011;64778;47.314;8.466;2023-01-15T14:28:40;0.20;;;0.10;;
75104;SDS011;64778;47.314;8.466;2023-01-15T14:36:29;0.30;;;0.20;;
75104;SDS011;64778;47.314;8.466;2023-01-15T14:39:06;0.70;;;0.30;;
75104;SDS011;64778;47.314;8.466;2023-01-15T14:42:12;1.08;;;0.60;;
75104;SDS011;64778;47.314;8.466;2023-01-15T14:45:02;0.60;;;0.40;;
75104;SDS011;64778;47.314;8.466;2023-01-15T14:47:30;0.13;;;0.10;;
75104;SDS011;64778;47.314;8.466;2023-01-15T14:49:59;0.63;;;0.30;;
75104;SDS011;64778;47.314;8.466;2023-01-15T14:52:31;5.50;;;2.38;;
75104;SDS011;64778;47.314;8.466;2023-01-15T14:54:57;0.38;;;0.10;;
75104;SDS011;64778;47.314;8.466;2023-01-15T14:57:29;0.50;;;0.30;;
75104;SDS011;64778;47.314;8.466;2023-01-15T15:00:00;2.60;;;0.20;;
75104;SDS011;64778;47.314;8.466;2023-01-15T15:02:33;0.20;;;0.20;;
75104;SDS011;64778;47.314;8.466;2023-01-15T15:05:02;1.95;;;0.35;;
75104;SDS011;64778;47.314;8.466;2023-01-15T15:07:38;0.57;;;0.20;;
75104;SDS011;64778;47.314;8.466;2023-01-15T15:10:20;1.50;;;0.47;;
75104;SDS011;64778;47.314;8.466;2023-01-15T15:15:34;0.30;;;0.20;;
75104;SDS011;64778;47.314;8.466;2023-01-15T15:23:23;1.00;;;0.20;;
75104;SDS011;64778;47.314;8.466;2023-01-15T15:28:59;0.90;;;0.20;;
75104;SDS011;64778;47.314;8.466;2023-01-15T15:31:25;0.13;;;0.13;;
75104;SDS011;64778;47.314;8.466;2023-01-15T15:33:55;0.28;;;0.20;;
75104;SDS011;64778;47.314;8.466;2023-01-15T15:36:25;0.40;;;0.20;;
75104;SDS011;64778;47.314;8.466;2023-01-15T15:38:59;0.70;;;0.30;;
75104;SDS011;64778;47.314;8.466;2023-01-15T15:41:31;1.00;;;0.40;;
75104;SDS011;64778;47.314;8.466;2023-01-15T15:44:28;1.58;;;0.25;;
75104;SDS011;64778;47.314;8.466;2023-01-15T15:47:20;0.90;;;0.20;;
75104;SDS011;64778;47.314;8.466;2023-01-15T15:50:17;1.15;;;0.77;;
75104;SDS011;64778;47.314;8.466;2023-01-15T15:52:54;0.30;;;0.10;;
75104;SDS011;64778;47.314;8.466;2023-01-15T15:55:22;0.28;;;0.10;;
75104;SDS011;64778;47.314;8.466;2023-01-15T15:57:53;1.00;;;0.30;;
75104;SDS011;64778;47.314;8.466;2023-01-15T16:00:40;0.68;;;0.40;;
75104;SDS011;64778;47.314;8.466;2023-01-15T16:03:15;1.67;;;0.30;;
75104;SDS011;64778;47.314;8.466;2023-01-15T16:08:27;1.20;;;0.10;;
75104;SDS011;64778;47.314;8.466;2023-01-15T16:11:03;0.77;;;0.30;;
75104;SDS011;64778;47.314;8.466;2023-01-15T16:13:43;2.72;;;0.30;;
75104;SDS011;64778;47.314;8.466;2023-01-15T16:16:13;0.30;;;0.25;;
75104;SDS011;64778;47.314;8.466;2023-01-15T16:18:41;1.55;;;0.60;;
75104;SDS011;64778;47.314;8.466;2023-01-15T16:21:32;1.48;;;0.20;;
75104;SDS011;64778;47.314;8.466;2023-01-15T16:24:04;0.32;;;0.20;;
75104;SDS011;64778;47.314;8.466;2023-01-15T16:26:41;2.60;;;0.30;;
75104;SDS011;64778;47.314;8.466;2023-01-15T16:29:24;1.75;;;0.20;;
75104;SDS011;64778;47.314;8.466;2023-01-15T16:31:59;0.80;;;0.30;;
75104;SDS011;64778;47.314;8.466;2023-01-15T16:34:27;0.80;;;0.32;;
75104;SDS011;64778;47.314;8.466;2023-01-15T16:36:54;1.13;;;0.40;;
75104;SDS011;64778;47.314;8.466;2023-01-15T16:39:28;0.43;;;0.25;;
75104;SDS011;64778;47.314;8.466;2023-01-15T16:42:02;1.55;;;0.30;;
75104;SDS011;64778;47.314;8.466;2023-01-15T16:44:41;0.32;;;0.20;;
75104;SDS011;64778;47.314;8.466;2023-01-15T16:47:20;0.80;;;0.20;;
75104;SDS011;64778;47.314;8.466;2023-01-15T16:49:51;1.58;;;0.30;;
75104;SDS011;64778;47.314;8.466;2023-01-15T16:55:08;0.93;;;0.40;;
75104;SDS011;64778;47.314;8.466;2023-01-15T17:00:36;0.57;;;0.30;;
75104;SDS011;64778;47.314;8.466;2023-01-15T17:03:09;1.75;;;0.52;;
75104;SDS011;64778;47.314;8.466;2023-01-15T17:09:01;0.77;;;0.40;;
75104;SDS011;64778;47.314;8.466;2023-01-15T17:11:27;1.30;;;0.28;;
75104;SDS011;64778;47.314;8.466;2023-01-15T17:14:09;0.77;;;0.40;;
75104;SDS011;64778;47.314;8.466;2023-01-15T17:16:46;0.90;;;0.40;;
75104;SDS011;64778;47.314;8.466;2023-01-15T17:19:31;1.27;;;0.50;;
75104;SDS011;64778;47.314;8.466;2023-01-15T17:21:59;0.55;;;0.30;;
75104;SDS011;64778;47.314;8.466;2023-01-15T17:24:25;2.25;;;0.43;;
75104;SDS011;64778;47.314;8.466;2023-01-15T17:29:16;4.20;;;1.15;;
75104;SDS011;64778;47.314;8.466;2023-01-15T17:31:44;1.02;;;0.60;;
75104;SDS011;64778;47.314;8.466;2023-01-15T17:34:12;1.75;;;0.63;;
75104;SDS011;64778;47.314;8.466;2023-01-15T17:36:40;0.98;;;0.60;;
75104;SDS011;64778;47.314;8.466;2023-01-15T17:39:08;2.00;;;0.50;;
75104;SDS011;64778;47.314;8.466;2023-01-15T17:41:37;0.90;;;0.50;;
75104;SDS011;64778;47.314;8.466;2023-01-15T17:44:02;3.50;;;0.47;;
75104;SDS011;64778;47.314;8.466;2023-01-15T17:48:53;1.85;;;0.65;;
75104;SDS011;64778;47.314;8.466;2023-01-15T17:51:19;2.05;;;0.70;;
75104;SDS011;64778;47.314;8.466;2023-01-15T17:56:11;1.08;;;0.50;;
75104;SDS011;64778;47.314;8.466;2023-01-15T17:58:55;1.00;;;0.50;;
75104;SDS011;64778;47.314;8.466;2023-01-15T18:01:40;2.17;;;0.57;;
75104;SDS011;64778;47.314;8.466;2023-01-15T18:04:31;0.40;;;0.30;;
75104;SDS011;64778;47.314;8.466;2023-01-15T18:07:37;1.65;;;0.52;;
75104;SDS011;64778;47.314;8.466;2023-01-15T18:10:08;1.25;;;0.80;;
75104;SDS011;64778;47.314;8.466;2023-01-15T18:12:41;2.30;;;0.55;;
75104;SDS011;64778;47.314;8.466;2023-01-15T18:15:09;1.10;;;0.52;;
75104;SDS011;64778;47.314;8.466;2023-01-15T18:21:00;1.63;;;0.50;;
75104;SDS011;64778;47.314;8.466;2023-01-15T18:23:26;0.80;;;0.47;;
75104;SDS011;64778;47.314;8.466;2023-01-15T18:25:55;1.27;;;0.63;;
75104;SDS011;64778;47.314;8.466;2023-01-15T18:28:23;2.50;;;0.57;;
75104;SDS011;64778;47.314;8.466;2023-01-15T18:30:51;2.05;;;0.63;;
75104;SDS011;64778;47.314;8.466;2023-01-15T18:33:19;1.60;;;0.50;;
75104;SDS011;64778;47.314;8.466;2023-01-15T18:35:44;1.13;;;0.50;;
75104;SDS011;64778;47.314;8.466;2023-01-15T18:40:36;4.95;;;0.65;;
75104;SDS011;64778;47.314;8.466;2023-01-15T18:43:03;1.83;;;0.80;;
75104;SDS011;64778;47.314;8.466;2023-01-15T18:45:48;3.35;;;0.60;;
75104;SDS011;64778;47.314;8.466;2023-01-15T18:48:34;0.98;;;0.40;;
75104;SDS011;64778;47.314;8.466;2023-01-15T18:51:07;3.20;;;0.50;;
75104;SDS011;64778;47.314;8.466;2023-01-15T18:53:33;2.22;;;0.60;;
75104;SDS011;64778;47.314;8.466;2023-01-15T18:56:02;1.85;;;0.40;;
75104;SDS011;64778;47.314;8.466;2023-01-15T18:58:29;3.63;;;0.50;;
75104;SDS011;64778;47.314;8.466;2023-01-15T19:03:20;3.03;;;0.40;;
75104;SDS011;64778;47.314;8.466;2023-01-15T19:08:12;2.63;;;0.43;;
75104;SDS011;64778;47.314;8.466;2023-01-15T19:10:40;4.57;;;0.30;;
75104;SDS011;64778;47.314;8.466;2023-01-15T19:13:10;1.20;;;0.40;;
75104;SDS011;64778;47.314;8.466;2023-01-15T19:15:42;2.47;;;0.40;;
75104;SDS011;64778;47.314;8.466;2023-01-15T19:21:07;1.17;;;0.50;;
75104;SDS011;64778;47.314;8.466;2023-01-15T19:23:35;1.50;;;0.40;;
75104;SDS011;64778;47.314;8.466;2023-01-15T19:26:03;1.58;;;0.60;;
75104;SDS011;64778;47.314;8.466;2023-01-15T19:28:32;1.50;;;0.52;;
75104;SDS011;64778;47.314;8.466;2023-01-15T19:30:57;1.47;;;0.60;;
75104;SDS011;64778;47.314;8.466;2023-01-15T19:33:58;3.53;;;1.42;;
75104;SDS011;64778;47.314;8.466;2023-01-15T19:36:26;1.40;;;0.63;;
75104;SDS011;64778;47.314;8.466;2023-01-15T19:38:52;1.92;;;0.73;;
75104;SDS011;64778;47.314;8.466;2023-01-15T19:41:20;2.03;;;0.80;;
75104;SDS011;64778;47.314;8.466;2023-01-15T19:44:07;2.65;;;0.80;;
75104;SDS011;64778;47.314;8.466;2023-01-15T19:46:51;2.77;;;0.70;;
75104;SDS011;64778;47.314;8.466;2023-01-15T19:49:36;2.10;;;0.80;;
75104;SDS011;64778;47.314;8.466;2023-01-15T19:52:20;1.92;;;0.57;;
75104;SDS011;64778;47.314;8.466;2023-01-15T19:54:58;2.10;;;0.70;;
75104;SDS011;64778;47.314;8.466;2023-01-15T19:57:27;2.97;;;0.70;;
75104;SDS011;64778;47.314;8.466;2023-01-15T19:59:53;3.55;;;0.95;;
75104;SDS011;64778;47.314;8.466;2023-01-15T20:02:19;2.30;;;0.85;;
75104;SDS011;64778;47.314;8.466;2023-01-15T20:04:48;3.40;;;1.60;;
75104;SDS011;64778;47.314;8.466;2023-01-15T20:07:16;2.53;;;1.00;;
75104;SDS011;64778;47.314;8.466;2023-01-15T20:09:42;2.60;;;1.17;;
75104;SDS011;64778;47.314;8.466;2023-01-15T20:12:12;3.90;;;1.25;;
75104;SDS011;64778;47.314;8.466;2023-01-15T20:14:58;2.33;;;1.00;;
75104;SDS011;64778;47.314;8.466;2023-01-15T20:17:26;2.63;;;1.13;;
75104;SDS011;64778;47.314;8.466;2023-01-15T20:19:53;3.15;;;1.25;;
75104;SDS011;64778;47.314;8.466;2023-01-15T20:22:21;2.33;;;1.30;;
75104;SDS011;64778;47.314;8.466;2023-01-15T20:24:52;2.10;;;1.05;;
75104;SDS011;64778;47.314;8.466;2023-01-15T20:27:23;3.05;;;0.90;;
75104;SDS011;64778;47.314;8.466;2023-01-15T20:29:51;3.72;;;1.10;;
75104;SDS011;64778;47.314;8.466;2023-01-15T20:32:22;2.53;;;1.00;;
75104;SDS011;64778;47.314;8.466;2023-01-15T20:34:50;4.47;;;1.30;;
75104;SDS011;64778;47.314;8.466;2023-01-15T20:37:16;4.32;;;1.70;;
75104;SDS011;64778;47.314;8.466;2023-01-15T20:39:42;5.38;;;2.15;;
75104;SDS011;64778;47.314;8.466;2023-01-15T20:42:10;4.30;;;1.80;;
75104;SDS011;64778;47.314;8.466;2023-01-15T20:44:56;3.20;;;1.33;;
75104;SDS011;64778;47.314;8.466;2023-01-15T20:47:26;3.88;;;2.00;;
75104;SDS011;64778;47.314;8.466;2023-01-15T20:50:13;14.80;;;7.10;;
75104;SDS011;64778;47.314;8.466;2023-01-15T20:52:45;3.70;;;1.42;;
75104;SDS011;64778;47.314;8.466;2023-01-15T20:55:17;3.88;;;1.40;;
75104;SDS011;64778;47.314;8.466;2023-01-15T20:57:46;2.38;;;1.20;;
75104;SDS011;64778;47.314;8.466;2023-01-15T21:00:18;2.80;;;1.40;;
75104;SDS011;64778;47.314;8.466;2023-01-15T21:02:45;3.15;;;1.38;;
75104;SDS011;64778;47.314;8.466;2023-01-15T21:05:13;3.67;;;1.33;;
75104;SDS011;64778;47.314;8.466;2023-01-15T21:07:39;2.63;;;0.95;;
75104;SDS011;64778;47.314;8.466;2023-01-15T21:10:07;3.65;;;0.70;;
75104;SDS011;64778;47.314;8.466;2023-01-15T21:12:34;2.75;;;0.98;;
75104;SDS011;64778;47.314;8.466;2023-01-15T21:15:00;3.30;;;0.90;;
75104;SDS011;64778;47.314;8.466;2023-01-15T21:17:26;4.00;;;1.00;;
75104;SDS011;64778;47.314;8.466;2023-01-15T21:19:54;1.85;;;0.80;;
75104;SDS011;64778;47.314;8.466;2023-01-15T21:22:22;1.98;;;0.68;;
75104;SDS011;64778;47.314;8.466;2023-01-15T21:24:48;5.50;;;1.60;;
75104;SDS011;64778;47.314;8.466;2023-01-15T21:27:16;3.17;;;1.00;;
75104;SDS011;64778;47.314;8.466;2023-01-15T21:29:42;2.97;;;0.90;;
75104;SDS011;64778;47.314;8.466;2023-01-15T21:32:07;2.30;;;0.80;;
75104;SDS011;64778;47.314;8.466;2023-01-15T21:34:38;3.10;;;1.00;;
75104;SDS011;64778;47.314;8.466;2023-01-15T21:37:03;4.93;;;1.20;;
75104;SDS011;64778;47.314;8.466;2023-01-15T21:42:51;3.33;;;1.33;;
75104;SDS011;64778;47.314;8.466;2023-01-15T21:45:37;2.22;;;1.00;;
75104;SDS011;64778;47.314;8.466;2023-01-15T21:48:05;3.75;;;0.90;;
75104;SDS011;64778;47.314;8.466;2023-01-15T21:50:31;2.60;;;0.87;;
75104;SDS011;64778;47.314;8.466;2023-01-15T21:52:56;2.47;;;0.80;;
75104;SDS011;64778;47.314;8.466;2023-01-15T21:55:22;3.15;;;0.60;;
75104;SDS011;64778;47.314;8.466;2023-01-15T21:57:52;3.00;;;0.70;;
75104;SDS011;64778;47.314;8.466;2023-01-15T22:00:20;2.35;;;0.70;;
75104;SDS011;64778;47.314;8.466;2023-01-15T22:02:48;2.58;;;0.70;;
75104;SDS011;64778;47.314;8.466;2023-01-15T22:05:13;2.97;;;0.70;;
75104;SDS011;64778;47.314;8.466;2023-01-15T22:07:42;1.70;;;0.73;;
75104;SDS011;64778;47.314;8.466;2023-01-15T22:10:10;4.32;;;1.00;;
75104;SDS011;64778;47.314;8.466;2023-01-15T22:12:35;2.67;;;0.75;;
75104;SDS011;64778;47.314;8.466;2023-01-15T22:15:06;4.20;;;0.70;;
75104;SDS011;64778;47.314;8.466;2023-01-15T22:17:32;1.55;;;0.60;;
75104;SDS011;64778;47.314;8.466;2023-01-15T22:20:00;2.67;;;0.60;;
75104;SDS011;64778;47.314;8.466;2023-01-15T22:22:26;3.45;;;0.70;;
75104;SDS011;64778;47.314;8.466;2023-01-15T22:24:59;2.25;;;0.90;;
75104;SDS011;64778;47.314;8.466;2023-01-15T22:27:25;3.38;;;0.57;;
75104;SDS011;64778;47.314;8.466;2023-01-15T22:29:52;1.40;;;0.60;;
75104;SDS011;64778;47.314;8.466;2023-01-15T22:32:19;2.40;;;0.70;;
75104;SDS011;64778;47.314;8.466;2023-01-15T22:34:50;3.20;;;0.90;;
75104;SDS011;64778;47.314;8.466;2023-01-15T22:37:20;2.10;;;0.85;;
75104;SDS011;64778;47.314;8.466;2023-01-15T22:39:47;2.03;;;0.82;;
75104;SDS011;64778;47.314;8.466;2023-01-15T22:42:16;2.67;;;0.87;;
75104;SDS011;64778;47.314;8.466;2023-01-15T22:44:55;2.38;;;1.08;;
75104;SDS011;64778;47.314;8.466;2023-01-15T22:47:24;2.40;;;1.20;;
75104;SDS011;64778;47.314;8.466;2023-01-15T22:49:51;1.65;;;0.82;;
75104;SDS011;64778;47.314;8.466;2023-01-15T22:52:17;3.38;;;1.15;;
75104;SDS011;64778;47.314;8.466;2023-01-15T22:54:43;1.60;;;0.90;;
75104;SDS011;64778;47.314;8.466;2023-01-15T22:57:10;2.50;;;1.00;;
75104;SDS011;64778;47.314;8.466;2023-01-15T22:59:37;1.92;;;0.90;;
75104;SDS011;64778;47.314;8.466;2023-01-15T23:02:03;2.42;;;1.13;;
75104;SDS011;64778;47.314;8.466;2023-01-15T23:04:28;2.70;;;1.27;;
75104;SDS011;64778;47.314;8.466;2023-01-15T23:06:54;2.20;;;1.30;;
75104;SDS011;64778;47.314;8.466;2023-01-15T23:09:20;2.77;;;1.60;;
75104;SDS011;64778;47.314;8.466;2023-01-15T23:11:49;3.40;;;1.60;;
75104;SDS011;64778;47.314;8.466;2023-01-15T23:14:20;2.75;;;1.80;;
75104;SDS011;64778;47.314;8.466;2023-01-15T23:16:46;3.08;;;1.80;;
75104;SDS011;64778;47.314;8.466;2023-01-15T23:19:14;3.58;;;1.95;;
75104;SDS011;64778;47.314;8.466;2023-01-15T23:21:42;2.85;;;1.70;;
75104;SDS011;64778;47.314;8.466;2023-01-15T23:24:11;2.78;;;1.80;;
75104;SDS011;64778;47.314;8.466;2023-01-15T23:26:37;3.75;;;2.10;;
75104;SDS011;64778;47.314;8.466;2023-01-15T23:29:02;3.80;;;2.55;;
75104;SDS011;64778;47.314;8.466;2023-01-15T23:31:29;3.97;;;2.38;;
75104;SDS011;64778;47.314;8.466;2023-01-15T23:33:54;5.10;;;2.90;;
75104;SDS011;64778;47.314;8.466;2023-01-15T23:36:23;4.88;;;2.95;;
75104;SDS011;64778;47.314;8.466;2023-01-15T23:38:49;4.90;;;3.40;;
75104;SDS011;64778;47.314;8.466;2023-01-15T23:41:20;5.05;;;2.70;;
75104;SDS011;64778;47.314;8.466;2023-01-15T23:44:11;4.63;;;3.25;;
75104;SDS011;64778;47.314;8.466;2023-01-15T23:47:00;4.70;;;3.22;;
75104;SDS011;64778;47.314;8.466;2023-01-15T23:49:28;5.68;;;3.50;;
75104;SDS011;64778;47.314;8.466;2023-01-15T23:51:57;5.95;;;3.42;;
75104;SDS011;64778;47.314;8.466;2023-01-15T23:54:22;4.65;;;3.65;;
75104;SDS011;64778;47.314;8.466;2023-01-15T23:56:52;5.00;;;3.50;;
75104;SDS011;64778;47.314;8.466;2023-01-15T23:59:20;5.63;;;3.50;;
